Latest Weather Observations for Forrest

IDW60801

Issued at 2:35 pm WST Tuesday 29 July 2014 (issued every 30 minutes, with the page automatically refreshed every 10 minutes)

About weather observations | Map of weather stations | Latest weather observations for WA | Other Formats
Station Details ID: 011052 Name: FORREST Lat: -30.85 Lon: 128.11 Height: 159.0 m
Data from the previous 72 hours. | See also: Recent months at Forrest
Date/Time
WST
Temp
°C
App
Temp
°C
Dew
Point
Rel
Hum
%
Delta-T
°C
Wind Press
QNH
hPa
Press
MSL
hPa
Rain
since 9 am
mm
Dir
 
Spd
km/h
Gust
km/h
Spd
kts
Gust
kts
29/02:31pm 20.7 15.2 5.9 38 7.4 W 24 33 13 18 1021.2 - 0.0
29/02:01pm 20.9 14.7 6.1 38 7.5 W 28 35 15 19 1021.3 - 0.0
29/01:31pm 20.2 14.0 6.2 40 7.1 W 28 39 15 21 1021.3 - 0.0
29/01:01pm 20.0 13.4 6.0 40 7.0 W 30 48 16 26 1021.4 - 0.0
29/12:53pm 20.2 14.0 6.2 40 7.1 WNW 28 48 15 26 1021.4 - 0.0
29/12:31pm 19.9 13.4 6.3 41 6.9 W 30 41 16 22 1021.8 - 0.0
29/12:01pm 19.5 14.2 6.6 43 6.5 W 24 43 13 23 1022.3 - 0.0
29/12:00pm 19.5 14.2 6.6 43 6.5 W 24 - 13 - - 1022.5 -
29/11:31am 19.2 13.1 6.7 44 6.3 W 28 37 15 20 1022.8 - 0.0
29/11:01am 19.0 14.2 7.4 47 5.9 W 22 30 12 16 1023.4 - 0.0
29/10:31am 18.6 13.4 7.4 48 5.7 W 24 32 13 17 1023.8 - 0.0
29/10:01am 17.3 11.9 6.5 49 5.4 WSW 24 32 13 17 1024.3 - 0.0
29/09:31am 16.8 11.9 6.9 52 4.9 W 22 30 12 16 1024.4 - 0.0
29/09:01am 15.6 11.8 7.4 58 4.1 W 17 20 9 11 1024.3 - 0.0
29/09:00am 15.6 11.8 7.4 58 4.1 W 17 - 9 - - 1024.5 0.0
29/08:31am 13.4 9.7 6.5 63 3.3 W 15 19 8 10 1023.9 - 0.0
29/08:01am 11.1 6.5 5.6 69 2.6 W 19 20 10 11 1023.6 - 0.0
29/07:31am 8.9 4.2 5.1 77 1.7 W 19 22 10 12 1023.5 - 0.0
29/07:01am 7.1 3.0 6.0 93 0.5 WNW 17 20 9 11 1023.1 - 0.0
29/06:31am 5.7 1.0 5.3 97 0.2 WNW 19 20 10 11 1022.7 - 0.0
29/06:01am 5.7 1.0 5.3 97 0.2 WNW 19 22 10 12 1022.5 - 0.0
29/06:00am 5.7 1.0 5.3 97 0.2 WNW 19 20 10 11 1022.5 1022.7 -
29/05:31am 5.6 0.9 5.2 97 0.2 WNW 19 22 10 12 1022.2 - 0.0
29/05:01am 6.1 1.5 5.5 96 0.3 WNW 19 22 10 12 1021.9 - 0.0
29/04:31am 6.1 1.5 5.7 97 0.2 WNW 19 20 10 11 1021.5 - 0.0
29/04:01am 5.8 1.2 5.4 97 0.2 WNW 19 20 10 11 1021.4 - 0.0
29/03:31am 6.0 1.8 5.6 97 0.2 WNW 17 20 9 11 1021.3 - 0.0
29/03:01am 6.0 1.8 5.7 98 0.1 WNW 17 19 9 10 1021.3 - 0.0
29/03:00am 6.0 1.8 5.7 98 0.1 WNW 17 - 9 - - 1021.4 0.0
29/02:31am 5.9 1.6 5.3 96 0.3 NW 17 19 9 10 1021.3 - 0.0
29/02:01am 7.1 2.8 5.3 88 0.8 WNW 17 19 9 10 1021.4 - 0.0
29/01:31am 7.9 3.1 4.8 81 1.4 W 19 22 10 12 1021.4 - 0.0
29/01:01am 7.9 3.2 5.2 83 1.2 NW 19 22 10 12 1021.3 - 0.0
29/12:31am 7.8 3.1 5.3 84 1.1 NW 19 22 10 12 1021.5 - 0.0
29/12:01am 7.9 3.3 5.4 84 1.1 NW 19 20 10 11 1021.6 - 0.0
29/12:00am 7.9 3.3 5.4 84 1.1 NW 19 20 10 11 1021.6 1021.7 -
 
Date/Time
WST
Temp
°C
App
Temp
°C
Dew
Point
Rel
Hum
%
Delta-T
°C
Wind Press
QNH
hPa
Press
MSL
hPa
Rain
since 9 am
mm
Dir
 
Spd
km/h
Gust
km/h
Spd
kts
Gust
kts
28/11:31pm 7.9 3.7 5.9 87 0.9 NW 17 20 9 11 1021.8 - 0.0
28/11:01pm 7.4 3.1 5.2 86 1.0 NW 17 20 9 11 1021.9 - 0.0
28/10:31pm 8.1 3.7 4.7 79 1.5 NW 17 19 9 10 1022.0 - 0.0
28/10:01pm 9.5 4.7 4.7 72 2.2 WNW 19 24 10 13 1022.1 - 0.0
28/09:31pm 9.5 5.1 4.7 72 2.2 WNW 17 20 9 11 1022.2 - 0.0
28/09:01pm 10.1 5.2 5.3 72 2.2 WNW 20 24 11 13 1022.2 - 0.0
28/09:00pm 10.1 5.2 5.3 72 2.2 WNW 20 - 11 - - 1022.4 0.0
28/08:31pm 8.8 4.5 5.4 79 1.5 WNW 17 17 9 9 1022.2 - 0.0
28/08:01pm 9.1 5.1 4.9 75 1.9 NW 15 17 8 9 1021.8 - 0.0
28/07:31pm 9.9 5.6 5.3 73 2.1 NW 17 19 9 10 1021.4 - 0.0
28/07:01pm 10.1 5.9 5.5 73 2.1 NW 17 19 9 10 1021.1 - 0.0
28/06:31pm 10.8 6.1 5.3 69 2.5 NW 19 20 10 11 1020.9 - 0.0
28/06:01pm 11.4 7.1 5.1 65 2.9 NNW 17 19 9 10 1020.6 - 0.0
28/06:00pm 11.4 7.1 5.1 65 2.9 NNW 17 - 9 - - 1020.7 -
28/05:31pm 12.8 8.4 4.8 58 3.7 NW 17 17 9 9 1020.4 - 0.0
28/05:01pm 14.9 10.4 4.3 49 4.9 NW 17 20 9 11 1020.1 - 0.0
28/04:31pm 16.5 11.7 4.5 45 5.7 NW 19 22 10 12 1020.0 - 0.0
28/04:01pm 17.6 11.8 4.2 41 6.4 NW 24 32 13 17 1019.8 - 0.0
28/03:31pm 19.1 12.9 4.1 37 7.2 WNW 26 35 14 19 1019.6 - 0.0
28/03:01pm 19.3 12.3 4.3 37 7.2 WNW 30 37 16 20 1019.4 - 0.0
28/03:00pm 19.3 12.3 4.3 37 7.2 WNW 30 - 16 - - 1019.5 0.0
28/02:31pm 18.2 11.5 3.7 38 6.9 WNW 28 39 15 21 1019.6 - 0.0
28/02:01pm 18.7 12.4 5.5 42 6.5 W 28 41 15 22 1019.7 - 0.0
28/01:31pm 18.2 12.8 6.4 46 5.9 W 24 33 13 18 1019.8 - 0.0
28/01:01pm 18.2 12.7 6.1 45 6.0 W 24 33 13 18 1020.1 - 0.0
28/12:31pm 18.4 13.5 6.9 47 5.8 W 22 30 12 16 1020.3 - 0.0
28/12:01pm 18.2 13.3 6.7 47 5.8 W 22 28 12 15 1020.7 - 0.0
28/12:00pm 18.2 13.3 6.7 47 5.8 W 22 - 12 - - 1020.8 -
28/11:31am 18.5 14.4 7.9 50 5.5 W 19 28 10 15 1021.1 - 0.0
28/11:01am 17.0 12.9 7.9 55 4.6 WNW 19 24 10 13 1021.6 - 0.0
28/10:31am 16.1 12.2 9.3 64 3.5 WNW 20 26 11 14 1021.9 - 0.0
28/10:01am 15.6 12.1 10.8 73 2.6 NW 20 24 11 13 1022.0 - 0.0
28/09:31am 14.3 12.7 14.0 98 0.2 NW 15 20 8 11 1022.4 - 0.0
28/09:01am 13.0 11.5 13.0 100 0.0 NW 13 15 7 8 1022.5 - 0.0
28/09:00am 13.0 11.5 13.0 100 0.0 NW 13 - 7 - - 1022.7 0.0
28/08:31am 12.2 - 12.4 - - NW 13 17 7 9 1022.3 - 0.0
28/08:01am 11.3 - 11.5 - - NW 11 13 6 7 1022.0 - 0.0
28/07:31am 10.5 - 10.6 - - NNW 11 15 6 8 1021.7 - 0.0
28/07:01am 9.6 - 9.7 - - NNW 11 15 6 8 1021.5 - 0.0
28/06:31am 8.7 - 8.8 - - NW 9 11 5 6 1021.6 - 0.0
28/06:01am 8.1 - 8.2 - - NNW 11 13 6 7 1021.2 - 0.0
28/06:00am 8.1 - - - - NNW 11 - 6 - - 1021.3 -
28/05:31am 7.7 - 7.8 - - NNW 11 13 6 7 1021.0 - 0.0
28/05:01am 8.3 - 8.4 - - N 13 15 7 8 1020.9 - 0.0
28/04:31am 8.1 - 8.2 - - N 11 13 6 7 1021.1 - 0.0
28/04:01am 7.8 - 7.9 - - N 13 13 7 7 1020.9 - 0.0
28/03:31am 8.0 - 8.1 - - N 13 15 7 8 1020.9 - 0.0
28/03:01am 8.0 - 8.1 - - N 15 17 8 9 1020.9 - 0.0
28/03:00am 8.0 - - - - N 15 - 8 - - 1021.0 0.0
28/02:31am 7.8 4.4 7.8 100 0.0 N 15 15 8 8 1020.9 - 0.0
28/02:01am 7.5 4.8 7.5 100 0.0 N 11 13 6 7 1020.9 - 0.0
28/01:31am 8.0 6.2 8.0 100 0.0 N 7 9 4 5 1021.1 - 0.0
28/01:01am 7.8 5.2 7.8 100 0.0 N 11 13 6 7 1021.1 - 0.0
28/12:31am 8.1 6.0 8.1 100 0.0 NNE 9 11 5 6 1021.0 - 0.0
28/12:01am 8.5 7.0 8.4 99 0.0 E 6 7 3 4 1021.1 - 0.0
28/12:00am 8.5 7.0 8.4 99 0.0 E 6 - 3 - - 1021.2 -
 
Date/Time
WST
Temp
°C
App
Temp
°C
Dew
Point
Rel
Hum
%
Delta-T
°C
Wind Press
QNH
hPa
Press
MSL
hPa
Rain
since 9 am
mm
Dir
 
Spd
km/h
Gust
km/h
Spd
kts
Gust
kts
27/11:31pm 8.7 7.1 8.6 99 0.0 E 7 9 4 5 1021.3 - 0.0
27/11:01pm 9.2 6.9 9.1 99 0.0 SE 11 13 6 7 1021.2 - 0.0
27/10:31pm 9.9 9.9 9.8 99 0.1 CALM 0 0 0 0 1021.3 - 0.0
27/10:01pm 9.8 8.6 9.7 99 0.1 E 6 7 3 4 1021.2 - 0.0
27/09:31pm 9.8 9.4 9.7 99 0.1 ESE 2 7 1 4 1021.3 - 0.0
27/09:01pm 9.9 8.1 9.6 98 0.2 NE 9 11 5 6 1021.2 - 0.0
27/09:00pm 9.9 8.1 9.6 98 0.2 NE 9 - 5 - - 1021.3 0.0
27/08:31pm 10.9 11.1 10.6 98 0.2 CALM 0 0 0 0 1020.9 - 0.0
27/08:01pm 11.9 10.8 10.5 91 0.7 S 7 7 4 4 1020.9 - 0.0
27/07:31pm 13.0 12.0 11.1 88 1.0 S 7 9 4 5 1020.7 - 0.0
27/07:01pm 13.2 11.7 10.4 83 1.5 S 9 11 5 6 1020.7 - 0.0
27/06:31pm 13.6 11.5 9.8 78 2.0 S 11 13 6 7 1020.5 - 0.0
27/06:01pm 15.1 12.7 9.9 71 2.7 S 13 15 7 8 1020.1 - 0.0
27/06:00pm 15.1 12.7 9.9 71 2.7 S 13 - 7 - - 1020.2 -
27/05:31pm 16.5 13.1 9.2 62 3.8 S 17 20 9 11 1019.9 - 0.0
27/05:01pm 18.1 14.8 6.3 46 5.9 SW 13 15 7 8 1019.6 - 0.0
27/04:31pm 20.3 16.1 5.5 38 7.4 WSW 17 20 9 11 1019.3 - 0.0
27/04:01pm 21.6 15.9 4.7 33 8.4 W 24 32 13 17 1019.0 - 0.0
27/03:31pm 22.3 16.1 4.4 31 8.8 W 26 32 14 17 1018.7 - 0.0
27/03:01pm 23.0 16.9 5.0 31 9.0 W 26 35 14 19 1018.7 - 0.0
27/03:00pm 23.0 16.9 5.0 31 9.0 W 26 - 14 - - 1018.8 0.0
27/02:31pm 23.3 16.5 3.3 27 9.7 W 28 39 15 21 1018.6 - 0.0
27/02:01pm 23.3 16.3 2.2 25 10.1 W 28 39 15 21 1018.5 - 0.0
27/01:31pm 23.4 16.0 1.7 24 10.3 WNW 30 37 16 20 1018.5 - 0.0
27/01:01pm 23.3 16.7 2.2 25 10.1 WNW 26 35 14 19 1018.8 - 0.0
27/12:31pm 22.8 15.9 2.3 26 9.8 WNW 28 32 15 17 1019.1 - 0.0
27/12:01pm 22.5 16.3 4.1 30 9.0 WNW 26 33 14 18 1019.5 - 0.0
27/12:00pm 22.5 16.3 4.1 30 9.0 WNW 26 - 14 - - 1019.6 -
27/11:31am 21.9 16.3 3.6 30 8.9 WNW 22 30 12 16 1019.9 - 0.0
27/11:01am 21.2 15.2 3.4 31 8.6 WNW 24 33 13 18 1020.5 - 0.0
27/10:31am 20.7 14.8 3.9 33 8.1 WNW 24 33 13 18 1020.7 - 0.0
27/10:01am 19.4 13.7 4.7 38 7.2 WNW 24 30 13 16 1021.2 - 0.0
27/09:31am 17.9 11.6 3.8 39 6.7 WNW 26 35 14 19 1021.5 - 0.0
27/09:01am 16.7 10.6 4.7 45 5.7 WNW 26 33 14 18 1021.7 - 0.0
27/09:00am 16.7 10.6 4.7 45 5.7 WNW 26 - 14 - - 1021.8 0.0
27/08:31am 14.9 9.1 4.6 50 4.8 NW 24 32 13 17 1021.3 - 0.0
27/08:01am 12.2 6.8 4.4 59 3.6 NW 22 28 12 15 1021.2 - 0.0
27/07:31am 9.3 4.2 4.1 70 2.3 NNW 20 26 11 14 1021.0 - 0.0
27/07:01am 7.0 1.9 4.0 81 1.3 NNW 20 24 11 13 1021.0 - 0.0
27/06:31am 6.1 0.9 3.8 85 1.0 NNW 20 24 11 13 1020.6 - 0.0
27/06:01am 5.7 0.7 3.7 87 0.8 NNW 19 20 10 11 1020.4 - 0.0
27/06:00am 5.7 0.7 3.7 87 0.8 NNW 19 - 10 - - 1020.5 -
27/05:31am 5.6 0.6 3.4 86 0.9 NNW 19 20 10 11 1020.2 - 0.0
27/05:01am 6.1 0.9 3.3 82 1.2 NNW 20 22 11 12 1020.0 - 0.0
27/04:31am 6.6 1.3 3.2 79 1.4 NNW 20 22 11 12 1019.8 - 0.0
27/04:01am 6.8 1.2 3.6 80 1.4 NNW 22 24 12 13 1019.7 - 0.0
27/03:31am 6.5 1.3 3.7 82 1.2 NNW 20 24 11 13 1019.7 - 0.0
27/03:01am 6.6 1.4 3.6 81 1.3 NNW 20 22 11 12 1020.0 - 0.0
27/03:00am 6.6 1.4 3.6 81 1.3 NNW 20 - 11 - - 1020.1 0.0
27/02:31am 6.7 1.5 3.7 81 1.3 NNW 20 22 11 12 1020.1 - 0.0
27/02:01am 7.0 1.5 3.8 80 1.4 NNW 22 24 12 13 1020.2 - 0.0
27/01:31am 6.8 1.8 4.5 85 1.0 NNW 20 24 11 13 1020.4 - 0.0
27/01:01am 6.5 1.6 5.3 92 0.5 NNW 20 20 11 11 1020.7 - 0.0
27/12:31am 6.0 1.2 5.6 97 0.2 NNW 20 20 11 11 1020.8 - 0.0
27/12:01am 5.8 1.5 5.2 96 0.3 NNW 17 19 9 10 1020.9 - 0.0
27/12:00am 5.8 1.5 5.2 96 0.3 NNW 17 - 9 - - 1021.0 -
 
Date/Time
WST
Temp
°C
App
Temp
°C
Dew
Point
Rel
Hum
%
Delta-T
°C
Wind Press
QNH
hPa
Press
MSL
hPa
Rain
since 9 am
mm
Dir
 
Spd
km/h
Gust
km/h
Spd
kts
Gust
kts
26/11:31pm 6.5 1.8 5.0 90 0.7 NNW 19 20 10 11 1021.1 - 0.0
26/11:01pm 7.0 2.3 5.2 88 0.8 NNW 19 19 10 10 1021.2 - 0.0
26/10:31pm 7.0 3.1 5.2 88 0.8 NNW 15 19 8 10 1021.1 - 0.0
26/10:01pm 7.7 2.9 4.7 81 1.3 NNW 19 19 10 10 1021.1 - 0.0
26/09:31pm 8.5 4.4 4.5 76 1.8 N 15 19 8 10 1021.1 - 0.0
26/09:01pm 9.8 5.0 4.6 70 2.3 N 19 20 10 11 1020.8 - 0.0
26/09:00pm 9.8 5.0 4.6 70 2.3 N 19 - 10 - - 1020.9 0.0
26/08:31pm 7.5 3.1 6.6 94 0.4 N 19 22 10 12 1021.1 - 0.0
26/08:01pm 8.3 4.2 6.3 87 0.9 N 17 17 9 9 1021.6 - 0.0
26/07:31pm 8.2 4.3 5.3 82 1.3 N 15 17 8 9 1021.7 - 0.0
26/07:01pm 10.2 5.6 5.6 73 2.1 NNW 19 20 10 11 1021.8 - 0.0
26/06:31pm 10.5 5.9 5.5 71 2.3 NNW 19 20 10 11 1021.7 - 0.0
26/06:01pm 11.4 7.2 5.7 68 2.7 NW 17 19 9 10 1021.6 - 0.0
26/06:00pm 11.4 7.2 5.7 68 2.7 NW 17 - 9 - - 1021.7 -
26/05:31pm 12.5 8.2 5.4 62 3.3 NNW 17 17 9 9 1021.2 - 0.0
26/05:01pm 14.4 10.1 5.2 54 4.4 NNW 17 19 9 10 1020.9 - 0.0
26/04:31pm 17.3 12.4 3.9 41 6.3 NNW 19 22 10 12 1020.9 - 0.0
26/04:01pm 19.1 12.6 2.9 34 7.6 NNW 26 32 14 17 1020.8 - 0.0
26/03:31pm 19.6 13.2 3.3 34 7.7 NNW 26 35 14 19 1020.9 - 0.0
26/03:01pm 19.9 13.6 3.6 34 7.8 NNW 26 35 14 19 1020.9 - 0.0
26/03:00pm 19.9 13.6 3.6 34 7.8 NNW 26 - 14 - - 1021.0 0.0

Other Formats:

Comma delimited format used in spreadsheet applications
http://www.bom.gov.au/fwo/IDW60801/IDW60801.95646.axf

JavaScript Object Notation format (JSON) in row-major order
http://www.bom.gov.au/fwo/IDW60801/IDW60801.95646.json